Flight Track Log - Related Links

Times and Time Zones

All times are in EDT time to prevent confusion due to time zone crossing. See the N508QS flight status page for this flight to view local times or setup timezone preferences in your user account.

Time Position Orientation Groundspeed Altitude Reporting Facility
EDT Latitude Longitude Course Direction KTS MPH feet Rate Location/Type
Sun 05:46:15 PM 40.8167 -74.1167 56° Northeast 198 228 1,500  Level New York TRACON
Sun 05:47:15 PM 40.8167 -74.2000 270° West 234 269 3,000 2,316 Climbing New York TRACON
Sun 05:48:09 PM 40.8500 -74.2500 311° West 275 316 5,900 1,500 Climbing New York TRACON
Sun 05:49:15 PM 40.9333 -74.2333 North 277 319 6,000 48 Climbing New York TRACON
Sun 05:50:15 PM 41.0167 -74.2000 17° North 278 320 6,000 842 Level New York TRACON
Sun 05:51:00 PM 41.5237 -72.7859 56° Northeast  Level FlightAware Approximate
Sun 05:51:09 PM 41.0833 -74.1667 21° North 278 320 7,600  Level New York TRACON
Sun 05:52:15 PM 41.1500 -74.1167 29° Northeast 293 337 11,300 2,810 Climbing New York TRACON
Sun 05:53:47 PM 41.1333 -73.9750 99° East 323 372 15,000 1,461 Climbing Boston Center
Sun 05:54:47 PM 41.0869 -73.8556 117° Southeast 322 371 15,000 200 Level Boston Center
Sun 05:55:47 PM 41.1258 -73.7461 65° Northeast 329 379 15,400 1,150 Climbing Boston Center
Sun 05:56:47 PM 41.1856 -73.6011 61° Northeast 369 425 17,300 2,050 Climbing Boston Center
Sun 05:57:47 PM 41.2475 -73.4589 60° Northeast 418 481 19,500 2,227 Climbing Boston Center
Sun 05:58:59 PM 41.3239 -73.2831 60° Northeast 445 512 22,200 2,000 Climbing Boston Center
Sun 05:59:59 PM 41.3769 -73.1483 62° Northeast 450 518 23,900 1,950 Climbing Boston Center
Sun 06:00:59 PM 41.4319 -72.9828 66° East 468 539 26,100 2,000 Climbing Boston Center
Sun 06:01:59 PM 41.4869 -72.8086 67° East 490 564 27,900 1,700 Climbing Boston Center
Sun 06:02:59 PM 41.5394 -72.6342 68° East 502 578 29,500 1,550 Climbing Boston Center
Sun 06:03:59 PM 41.5958 -72.4511 68° East 512 589 31,000 1,800 Climbing Boston Center
Sun 06:04:59 PM 41.6561 -72.2678 66° East 525 604 33,100 2,000 Climbing Boston Center
Sun 06:05:59 PM 41.7122 -72.0842 68° East 530 610 35,000 1,700 Climbing Boston Center
Sun 06:06:59 PM 41.7697 -71.9000 67° East 530 610 36,500 1,250 Climbing Boston Center
Sun 06:07:59 PM 41.8269 -71.7131 68° East 536 617 37,500 1,050 Climbing Boston Center
Sun 06:08:59 PM 41.8903 -71.5253 66° East 536 617 38,600 1,150 Climbing Boston Center
Sun 06:09:59 PM 41.9469 -71.3375 68° East 536 617 39,800 1,200 Climbing Boston Center
Sun 06:10:59 PM 42.0033 -71.1467 68° East 541 623 41,000 600 Climbing Boston Center
Sun 06:11:59 PM 42.0614 -70.9525 68° East 541 623 41,000  Level Boston Center
Sun 06:12:59 PM 42.1189 -70.7494 69° East 554 638 41,000  Level Boston Center
Sun 06:13:59 PM 42.1783 -70.5519 68° East 565 650 41,000  Level Boston Center
Sun 06:15:11 PM 42.2353 -70.3567 68° East 565 650 41,000  Level Boston Center
Sun 06:16:11 PM 42.3158 -70.0983 67° East 560 644 41,000  Level Boston Center
Sun 06:17:11 PM 42.3678 -69.8969 71° East 560 644 41,000  Level Boston Center
Sun 06:18:11 PM 42.4236 -69.7006 69° East 560 644 41,000  Level Boston Center
Sun 06:19:11 PM 42.4811 -69.5008 69° East 560 644 41,000  Level Boston Center
Sun 06:20:11 PM 42.5342 -69.3011 70° East 554 638 41,000  Level Boston Center
Sun 06:21:11 PM 42.5931 -69.1033 68° East 559 643 41,000  Level Boston Center
Sun 06:21:49 PM 42.6000 -69.0333 82° East 570 656 41,000  Level Moncton Center
Sun 06:22:11 PM 42.6456 -68.9058 64° Northeast 559 643 41,000  Level Boston Center
Sun 06:23:11 PM 42.7017 -68.7047 69° East 559 643 41,000  Level Boston Center
Sun 06:23:49 PM 42.7167 -68.6167 77° East 560 644 41,000  Level Moncton Center
Sun 06:24:49 PM 42.7667 -68.4167 71° East 560 644 41,000  Level Moncton Center
Sun 06:25:11 PM 42.8033 -68.3306 60° Northeast 559 643 41,000  Level Boston Center
Sun 06:26:11 PM 42.8544 -68.1317 71° East 554 638 41,000  Level Boston Center
Sun 06:26:49 PM 42.8667 -68.0167 82° East 560 644 41,000  Level Moncton Center
Sun 06:27:11 PM 42.9092 -67.9319 56° Northeast 559 643 41,000  Level Boston Center
Sun 06:28:11 PM 42.9614 -67.7267 71° East 559 643 41,000  Level Boston Center
Sun 06:29:11 PM 43.0136 -67.5294 70° East 559 643 41,000  Level Boston Center
Sun 06:29:49 PM 43.0500 -67.3667 73° East 570 656 41,000  Level Moncton Center
Sun 06:30:49 PM 43.1000 -67.1667 71° East 570 656 41,000  Level Moncton Center
Sun 06:31:49 PM 43.1500 -66.9667 71° East 570 656 41,000  Level Moncton Center
Sun 06:32:49 PM 43.2333 -66.7667 60° Northeast 560 644 41,000  Level Moncton Center
Sun 06:33:49 PM 43.3000 -66.5833 63° Northeast 570 656 41,000  Level Moncton Center
Sun 06:34:49 PM 43.3667 -66.4000 63° Northeast 570 656 41,000  Level Moncton Center
Sun 06:35:49 PM 43.4333 -66.2000 65° Northeast 570 656 41,000  Level Moncton Center
Sun 06:36:49 PM 43.5167 -66.0167 58° Northeast 570 656 41,000  Level Moncton Center
Sun 06:37:49 PM 43.6000 -65.8000 62° Northeast 570 656 41,000  Level Moncton Center
Sun 06:39:49 PM 43.7500 -65.4167 61° Northeast 570 656 41,000  Level Moncton Center
Sun 06:40:49 PM 43.8167 -65.2333 63° Northeast 570 656 41,000  Level Moncton Center
Sun 06:42:48 PM 43.9500 -64.8500 64° Northeast 580 667 41,000  Level Gander Center
Sun 06:43:48 PM 44.0333 -64.6167 64° Northeast 590 679 41,000  Level Gander Center
Sun 06:44:49 PM 44.1000 -64.4167 65° Northeast 580 667 41,000  Level Moncton Center
Sun 06:45:49 PM 44.1667 -64.2333 63° Northeast 580 667 41,000  Level Moncton Center
Sun 06:46:49 PM 44.2500 -64.0167 62° Northeast 580 667 41,000  Level Moncton Center
Sun 06:47:49 PM 44.3167 -63.8333 63° Northeast 580 667 41,000  Level Moncton Center
Sun 06:48:49 PM 44.4000 -63.6000 63° Northeast 580 667 41,000  Level Moncton Center
Sun 06:49:49 PM 44.4667 -63.4167 63° Northeast 580 667 41,000  Level Moncton Center
Sun 06:50:49 PM 44.5333 -63.2000 67° East 580 667 41,000  Level Moncton Center
Sun 06:51:49 PM 44.6000 -63.0167 63° Northeast 580 667 41,000  Level Moncton Center
Sun 06:52:49 PM 44.6833 -62.8000 62° Northeast 570 656 41,000  Level Moncton Center
Sun 06:53:49 PM 44.7333 -62.6000 71° East 570 656 41,000  Level Moncton Center
Sun 06:54:49 PM 44.8000 -62.4167 63° Northeast 570 656 41,000  Level Moncton Center
Sun 06:55:48 PM 44.8667 -62.2000 66° East 570 656 41,000  Level Gander Center
Sun 06:56:48 PM 44.9333 -61.9833 66° East 570 656 41,000  Level Gander Center
Sun 06:57:48 PM 45.0167 -61.8000 57° Northeast 570 656 41,000  Level Gander Center
Sun 06:58:48 PM 45.0833 -61.5833 66° East 570 656 41,000  Level Gander Center
Sun 06:59:48 PM 45.1500 -61.3833 65° Northeast 570 656 41,000  Level Gander Center
Sun 07:00:48 PM 45.2167 -61.1833 65° Northeast 570 656 41,000  Level Gander Center
Sun 07:01:48 PM 45.2833 -60.9667 66° East 570 656 41,000  Level Gander Center
Sun 07:02:48 PM 45.3500 -60.7667 65° Northeast 570 656 41,000  Level Gander Center
Sun 07:03:48 PM 45.4000 -60.5500 72° East 570 656 41,000  Level Gander Center
Sun 07:04:48 PM 45.4667 -60.3500 65° Northeast 570 656 41,000  Level Gander Center
Sun 07:05:48 PM 45.5333 -60.1333 66° East 570 656 41,000  Level Gander Center
Sun 07:06:48 PM 45.5833 -59.9500 69° East 570 656 41,000  Level Gander Center
Sun 07:07:48 PM 45.6667 -59.7333 61° Northeast 570 656 41,000  Level Gander Center
Sun 07:08:48 PM 45.7167 -59.5167 72° East 570 656 41,000  Level Gander Center
Sun 07:09:48 PM 45.8000 -59.3167 59° Northeast 570 656 41,000  Level Gander Center
Sun 07:10:48 PM 45.8333 -59.1000 77° East 570 656 41,000  Level Gander Center
Sun 07:11:48 PM 45.9000 -58.8833 66° East 570 656 41,000  Level Gander Center
Sun 07:12:48 PM 45.9667 -58.6833 64° Northeast 570 656 41,000  Level Gander Center
Sun 07:13:48 PM 46.0167 -58.4667 72° East 570 656 41,000  Level Gander Center
Sun 07:14:48 PM 46.0833 -58.2500 66° East 570 656 41,000  Level Gander Center
Sun 07:15:48 PM 46.1500 -58.0333 66° East 570 656 41,000  Level Gander Center
Sun 07:16:48 PM 46.2000 -57.8333 70° East 570 656 41,000  Level Gander Center
Sun 07:17:48 PM 46.2667 -57.6333 64° Northeast 570 656 41,000  Level Gander Center
Sun 07:18:48 PM 46.3333 -57.4167 66° East 570 656 41,000  Level Gander Center
Sun 07:19:48 PM 46.3833 -57.2000 71° East 570 656 41,000  Level Gander Center
Sun 07:20:48 PM 46.4500 -56.9667 67° East 570 656 41,000  Level Gander Center
Sun 07:22:48 PM 46.5667 -56.5667 67° East 560 644 41,000  Level Gander Center
Sun 07:23:48 PM 46.6000 -56.3500 77° East 560 644 41,000  Level Gander Center
Sun 07:24:48 PM 46.6500 -56.1167 73° East 570 656 41,000  Level Gander Center
Sun 07:25:48 PM 46.7167 -55.9000 66° East 570 656 41,000  Level Gander Center
Sun 07:26:48 PM 46.7667 -55.6667 73° East 570 656 41,000  Level Gander Center
Sun 07:27:48 PM 46.8333 -55.4667 64° Northeast 570 656 41,000  Level Gander Center
Sun 07:28:48 PM 46.8667 -55.2500 77° East 570 656 41,000  Level Gander Center
Sun 07:29:48 PM 46.9167 -55.0167 73° East 570 656 41,000  Level Gander Center
Sun 07:30:48 PM 46.9667 -54.8167 70° East 570 656 41,000  Level Gander Center
Sun 07:31:48 PM 47.0333 -54.5833 67° East 570 656 41,000  Level Gander Center
Sun 07:32:48 PM 47.0833 -54.3833 70° East 570 656 41,000  Level Gander Center
Sun 07:33:48 PM 47.1167 -54.1667 77° East 560 644 41,000  Level Gander Center
Sun 07:34:48 PM 47.1667 -53.9333 72° East 560 644 41,000  Level Gander Center
Sun 07:35:48 PM 47.2167 -53.7333 70° East 570 656 41,000  Level Gander Center
Sun 07:36:48 PM 47.2667 -53.5000 72° East 570 656 41,000  Level Gander Center
Sun 07:37:48 PM 47.3333 -53.2833 66° East 570 656 41,000  Level Gander Center
Sun 07:38:48 PM 47.3833 -53.0667 71° East 560 644 41,000  Level Gander Center
Sun 07:39:48 PM 47.4167 -52.8333 78° East 570 656 41,000  Level Gander Center
Sun 07:40:48 PM 47.4500 -52.6000 78° East 570 656 41,000  Level Gander Center
Sun 07:41:00 PM 48.0000 -50.0000 86° East 559 643 41,000  Level ETMS Enhanced Traffic Management System
Sun 07:41:48 PM 47.5167 -52.4000 86° East 570 656 41,000  Level Gander Center
Sun 07:42:48 PM 47.5500 -52.1667 78° East 570 656 41,000  Level Gander Center
Sun 07:43:48 PM 47.6000 -51.9500 71° East 570 656 41,000  Level Gander Center
Sun 07:44:48 PM 47.6500 -51.7167 72° East 570 656 41,000  Level Gander Center
Sun 07:45:48 PM 47.6833 -51.4833 78° East 570 656 41,000  Level Gander Center
Sun 07:46:48 PM 47.7333 -51.2833 70° East 570 656 41,000  Level Gander Center
Sun 07:47:48 PM 47.7833 -51.0500 72° East 570 656 41,000  Level Gander Center
Sun 07:48:48 PM 47.8167 -50.8167 78° East 570 656 41,000  Level Gander Center
Sun 07:49:48 PM 47.8667 -50.5833 72° East 570 656 41,000  Level Gander Center
Sun 07:50:48 PM 47.9000 -50.3667 77° East 570 656 41,000  Level Gander Center
Sun 07:51:48 PM 47.9500 -50.1333 72° East 570 656 41,000  Level Gander Center
Sun 07:52:48 PM 47.9833 -49.9000 78° East 570 656 41,000  Level Gander Center
Sun 07:53:48 PM 48.0000 -49.6667 84° East 570 656 41,000  Level Gander Center
Sun 07:54:48 PM 48.0000 -49.4333 90° East 570 656 41,000  Level Gander Center
Sun 07:55:48 PM 48.0167 -49.1833 84° East 560 644 41,000  Level Gander Center
Sun 07:56:48 PM 48.0167 -48.9500 90° East 570 656 41,000  Level Gander Center
Sun 07:57:00 PM 48.0000 -50.0000 86° East 573 659 41,000  Level ETMS Enhanced Traffic Management System
Sun 07:57:48 PM 48.0333 -48.7500 86° East 570 656 41,000  Level Gander Center
Sun 07:58:48 PM 48.0333 -48.5000 90° East 570 656 41,000  Level Gander Center
Sun 07:59:48 PM 48.0500 -48.2667 84° East 570 656 41,000  Level Gander Center
Sun 08:00:48 PM 48.0500 -48.0167 90° East 570 656 41,000  Level Gander Center
Sun 08:01:05 PM 48.0500 -47.9667 90° East 570 656 41,000  Level Gander Center
Sun 08:02:05 PM 48.0667 -47.7167 84° East 570 656 41,000  Level Gander Center
Sun 08:02:48 PM 48.0667 -47.5667 90° East 570 656 41,000  Level Gander Center
Sun 08:03:48 PM 48.0667 -47.3333 90° East 560 644 41,000  Level Gander Center
Sun 08:04:48 PM 48.0667 -47.1000 90° East 560 644 41,000  Level Gander Center
Sun 08:05:48 PM 48.0667 -46.8667 90° East 560 644 41,000  Level Gander Center
Sun 08:06:48 PM 48.0833 -46.6500 83° East 560 644 41,000  Level Gander Center
Sun 08:07:48 PM 48.0833 -46.4333 90° East 560 644 41,000  Level Gander Center
Sun 08:09:00 PM 48.0869 -46.1754 89° East  Level FlightAware Approximate
Sun 08:16:00 PM 48.0962 -44.6707 89° East  Level FlightAware Approximate
Sun 08:17:00 PM 48.0960 -44.4557 90° East  Level FlightAware Approximate
Sun 08:18:00 PM 48.0953 -44.2407 90° East  Level FlightAware Approximate
Sun 08:19:00 PM 48.0942 -44.0257 90° East  Level FlightAware Approximate
Sun 08:20:00 PM 48.0928 -43.8108 91° East  Level FlightAware Approximate
Sun 08:21:00 PM 48.0909 -43.5958 91° East  Level FlightAware Approximate
Sun 08:22:00 PM 48.0886 -43.3809 91° East  Level FlightAware Approximate
Sun 08:23:00 PM 48.0859 -43.1660 91° East  Level FlightAware Approximate
Sun 08:24:00 PM 48.0829 -42.9511 91° East  Level FlightAware Approximate
Sun 08:25:00 PM 48.0794 -42.7362 91° East  Level FlightAware Approximate
Sun 08:26:00 PM 48.0755 -42.5214 91° East  Level FlightAware Approximate
Sun 08:27:00 PM 48.0712 -42.3066 92° East  Level FlightAware Approximate
Sun 08:28:00 PM 48.0666 -42.0918 92° East  Level FlightAware Approximate
Sun 08:29:00 PM 48.0615 -41.8771 92° East  Level FlightAware Approximate
Sun 08:30:00 PM 48.0560 -41.6624 92° East  Level FlightAware Approximate
Sun 08:31:00 PM 48.0501 -41.4478 92° East  Level FlightAware Approximate
Sun 08:32:00 PM 48.0438 -41.2332 92° East  Level FlightAware Approximate
Sun 08:33:00 PM 48.0372 -41.0187 93° East  Level FlightAware Approximate
Sun 08:34:00 PM 48.0301 -40.8042 93° East  Level FlightAware Approximate
Sun 08:35:00 PM 48.0226 -40.5898 93° East  Level FlightAware Approximate
Sun 08:36:00 PM 48.0148 -40.3754 93° East  Level FlightAware Approximate
Sun 08:37:00 PM 48.0065 -40.1612 93° East  Level FlightAware Approximate
Sun 08:37:00 PM 48.0000 -40.0000 78° East 535 616 41,000  Level ETMS Enhanced Traffic Management System
Sun 08:38:00 PM 48.0075 -39.9485 78° East  Level FlightAware Approximate
Sun 08:39:00 PM 48.0378 -39.7386 78° East  Level FlightAware Approximate
Sun 08:40:00 PM 48.0678 -39.5285 78° East  Level FlightAware Approximate
Sun 08:41:00 PM 48.0973 -39.3182 78° East  Level FlightAware Approximate
Sun 08:42:00 PM 48.1265 -39.1077 78° East  Level FlightAware Approximate
Sun 08:43:00 PM 48.2688 -38.0341 79° East 535 616 41,000  Level FlightAware Transoceanic
Sun 08:44:00 PM 48.2966 -37.8144 79° East 535 616 41,000  Level FlightAware Transoceanic
Sun 08:45:00 PM 48.3240 -37.5945 79° East 535 616 41,000  Level FlightAware Transoceanic
Sun 08:46:00 PM 48.3509 -37.3744 80° East 535 616 41,000  Level FlightAware Transoceanic
Sun 08:47:00 PM 48.3774 -37.1540 80° East 535 616 41,000  Level FlightAware Transoceanic
Sun 08:48:00 PM 48.4036 -36.9334 80° East 535 616 41,000  Level FlightAware Transoceanic
Sun 08:49:00 PM 48.4292 -36.7125 80° East 535 616 41,000  Level FlightAware Transoceanic
Sun 08:50:00 PM 48.4545 -36.4915 80° East 535 616 41,000  Level FlightAware Transoceanic
Sun 08:51:00 PM 48.4794 -36.2702 80° East 535 616 41,000  Level FlightAware Transoceanic
Sun 08:52:00 PM 48.5038 -36.0487 81° East 535 616 41,000  Level FlightAware Transoceanic
Sun 08:53:00 PM 48.5278 -35.8270 81° East 535 616 41,000  Level FlightAware Transoceanic
Sun 08:54:00 PM 48.5513 -35.6051 81° East 535 616 41,000  Level FlightAware Transoceanic
Sun 08:55:00 PM 48.5745 -35.3830 81° East 535 616 41,000  Level FlightAware Transoceanic
Sun 08:56:00 PM 48.5972 -35.1607 81° East 535 616 41,000  Level FlightAware Transoceanic
Sun 08:57:00 PM 48.6195 -34.9382 81° East 535 616 41,000  Level FlightAware Transoceanic
Sun 08:58:00 PM 48.6413 -34.7155 82° East 535 616 41,000  Level FlightAware Transoceanic
Sun 08:59:00 PM 48.6627 -34.4926 82° East 535 616 41,000  Level FlightAware Transoceanic
Sun 09:00:00 PM 48.6837 -34.2695 82° East 535 616 41,000  Level FlightAware Transoceanic
Sun 09:01:00 PM 48.7043 -34.0462 82° East 535 616 41,000  Level FlightAware Transoceanic
Sun 09:02:00 PM 48.7244 -33.8228 82° East 535 616 41,000  Level FlightAware Transoceanic
Sun 09:03:00 PM 48.7441 -33.5991 82° East 535 616 41,000  Level FlightAware Transoceanic
Sun 09:04:00 PM 48.7634 -33.3753 83° East 535 616 41,000  Level FlightAware Transoceanic
Sun 09:05:00 PM 48.7822 -33.1513 83° East 535 616 41,000  Level FlightAware Transoceanic
Sun 09:06:00 PM 48.8006 -32.9272 83° East 535 616 41,000  Level FlightAware Transoceanic
Sun 09:07:00 PM 48.8186 -32.7029 83° East 535 616 41,000  Level FlightAware Transoceanic
Sun 09:08:00 PM 48.8361 -32.4785 83° East 535 616 41,000  Level FlightAware Transoceanic
Sun 09:09:00 PM 48.8532 -32.2538 83° East 535 616 41,000  Level FlightAware Transoceanic
Sun 09:10:00 PM 48.8699 -32.0291 84° East 535 616 41,000  Level FlightAware Transoceanic
Sun 09:11:00 PM 48.8861 -31.8042 84° East 535 616 41,000  Level FlightAware Transoceanic
Sun 09:12:00 PM 48.9018 -31.5791 84° East 535 616 41,000  Level FlightAware Transoceanic
Sun 09:13:00 PM 48.9172 -31.3539 84° East 535 616 41,000  Level FlightAware Transoceanic
Sun 09:14:00 PM 48.9321 -31.1286 84° East 535 616 41,000  Level FlightAware Transoceanic
Sun 09:15:00 PM 48.9465 -30.9031 85° East 535 616 41,000  Level FlightAware Transoceanic
Sun 09:16:00 PM 48.9606 -30.6775 85° East 535 616 41,000  Level FlightAware Transoceanic
Sun 09:17:00 PM 48.9742 -30.4518 85° East 535 616 41,000  Level FlightAware Transoceanic
Sun 09:18:00 PM 48.9873 -30.2260 85° East 535 616 41,000  Level FlightAware Transoceanic
Sun 09:19:00 PM 48.9996 -30.0079 85° East  Level FlightAware Approximate
Sun 09:19:00 PM 49.0000 -30.0000 77° East 549 632 41,000  Level ETMS Enhanced Traffic Management System
Sun 09:19:54 PM 49.0000 -30.0000 77° East 549 632 41,000  Level ETMS Enhanced Traffic Management System
Sun 09:20:00 PM 49.0115 -29.7898 85° East  Level FlightAware Approximate
Sun 09:21:00 PM 49.0287 -29.8018 77° East  Level FlightAware Approximate
Sun 09:22:00 PM 49.0593 -29.5877 78° East  Level FlightAware Approximate
Sun 09:23:00 PM 49.0896 -29.3734 78° East  Level FlightAware Approximate
Sun 09:24:00 PM 49.1194 -29.1589 78° East  Level FlightAware Approximate
Sun 09:25:00 PM 49.2508 -28.1730 79° East 549 632 41,000  Level FlightAware Transoceanic
Sun 09:26:00 PM 49.2801 -27.9434 79° East 549 632 41,000  Level FlightAware Transoceanic
Sun 09:27:00 PM 49.3090 -27.7135 79° East 549 632 41,000  Level FlightAware Transoceanic
Sun 09:28:00 PM 49.3374 -27.4833 79° East 549 632 41,000  Level FlightAware Transoceanic
Sun 09:29:00 PM 49.3653 -27.2529 80° East 549 632 41,000  Level FlightAware Transoceanic
Sun 09:30:00 PM 49.3928 -27.0222 80° East 549 632 41,000  Level FlightAware Transoceanic
Sun 09:31:00 PM 49.4199 -26.7912 80° East 549 632 41,000  Level FlightAware Transoceanic
Sun 09:32:00 PM 49.4464 -26.5600 80° East 549 632 41,000  Level FlightAware Transoceanic
Sun 09:33:00 PM 49.4725 -26.3285 80° East 549 632 41,000  Level FlightAware Transoceanic
Sun 09:34:00 PM 49.4982 -26.0968 80° East 549 632 41,000  Level FlightAware Transoceanic
Sun 09:35:00 PM 49.5234 -25.8649 81° East 549 632 41,000  Level FlightAware Transoceanic
Sun 09:36:00 PM 49.5481 -25.6327 81° East 549 632 41,000  Level FlightAware Transoceanic
Sun 09:37:00 PM 49.5723 -25.4003 81° East 549 632 41,000  Level FlightAware Transoceanic
Sun 09:38:00 PM 49.5961 -25.1676 81° East 549 632 41,000  Level FlightAware Transoceanic
Sun 09:39:00 PM 49.6194 -24.9348 81° East 549 632 41,000  Level FlightAware Transoceanic
Sun 09:40:00 PM 49.6423 -24.7017 81° East 549 632 41,000  Level FlightAware Transoceanic
Sun 09:41:00 PM 49.6647 -24.4684 82° East 549 632 41,000  Level FlightAware Transoceanic
Sun 09:42:00 PM 49.6866 -24.2348 82° East 549 632 41,000  Level FlightAware Transoceanic
Sun 09:43:00 PM 49.7080 -24.0011 82° East 549 632 41,000  Level FlightAware Transoceanic
Sun 09:44:00 PM 49.7290 -23.7672 82° East 549 632 41,000  Level FlightAware Transoceanic
Sun 09:45:00 PM 49.7495 -23.5330 82° East 549 632 41,000  Level FlightAware Transoceanic
Sun 09:46:00 PM 49.7695 -23.2987 83° East 549 632 41,000  Level FlightAware Transoceanic
Sun 09:47:00 PM 49.7891 -23.0642 83° East 549 632 41,000  Level FlightAware Transoceanic
Sun 09:48:00 PM 49.8082 -22.8295 83° East 549 632 41,000  Level FlightAware Transoceanic
Sun 09:49:00 PM 49.8268 -22.5946 83° East 549 632 41,000  Level FlightAware Transoceanic
Sun 09:50:00 PM 49.8449 -22.3595 83° East 549 632 41,000  Level FlightAware Transoceanic
Sun 09:51:00 PM 49.8626 -22.1243 83° East 549 632 41,000  Level FlightAware Transoceanic
Sun 09:52:00 PM 49.8798 -21.8889 84° East 549 632 41,000  Level FlightAware Transoceanic
Sun 09:53:00 PM 49.8965 -21.6533 84° East 549 632 41,000  Level FlightAware Transoceanic
Sun 09:54:00 PM 49.9127 -21.4176 84° East 549 632 41,000  Level FlightAware Transoceanic
Sun 09:55:00 PM 49.9284 -21.1817 84° East 549 632 41,000  Level FlightAware Transoceanic
Sun 09:56:00 PM 49.9437 -20.9456 84° East 549 632 41,000  Level FlightAware Transoceanic
Sun 09:57:00 PM 49.9585 -20.7094 85° East 549 632 41,000  Level FlightAware Transoceanic
Sun 09:58:00 PM 49.9728 -20.4731 85° East 549 632 41,000  Level FlightAware Transoceanic
Sun 09:59:00 PM 49.9866 -20.2366 85° East 549 632 41,000 76 Level FlightAware Transoceanic
Sun 10:00:00 PM 49.9992 -20.0141 85° East  Level FlightAware Approximate
Sun 10:01:00 PM 50.0113 -19.7915 85° East  Level FlightAware Approximate
Sun 10:02:00 PM 50.0201 -19.8074 81° East  Level FlightAware Approximate
Sun 10:03:00 PM 50.0427 -19.5867 81° East  Level FlightAware Approximate
Sun 10:04:00 PM 50.0648 -19.3657 81° East  Level FlightAware Approximate
Sun 10:05:00 PM 50.0866 -19.1446 81° East  Level FlightAware Approximate
Sun 10:06:00 PM 50.1079 -18.9232 81° East  Level FlightAware Approximate
Sun 10:07:00 PM 50.1289 -18.7017 82° East  Level FlightAware Approximate
Sun 10:08:00 PM 50.1494 -18.4799 82° East  Level FlightAware Approximate
Sun 10:09:00 PM 50.1694 -18.2580 82° East  Level FlightAware Approximate
Sun 10:10:00 PM 50.1891 -18.0359 82° East  Level FlightAware Approximate
Sun 10:11:00 PM 50.2083 -17.8136 82° East  Level FlightAware Approximate
Sun 10:12:00 PM 50.2271 -17.5911 82° East  Level FlightAware Approximate
Sun 10:13:00 PM 50.2455 -17.3685 83° East  Level FlightAware Approximate
Sun 10:14:00 PM 50.2635 -17.1457 83° East  Level FlightAware Approximate
Sun 10:15:00 PM 50.2810 -16.9227 83° East  Level FlightAware Approximate
Sun 10:16:00 PM 50.2981 -16.6996 83° East  Level FlightAware Approximate
Sun 10:17:00 PM 50.3148 -16.4763 83° East  Level FlightAware Approximate
Sun 10:18:00 PM 50.3310 -16.2528 83° East  Level FlightAware Approximate
Sun 10:19:00 PM 50.3468 -16.0292 84° East  Level FlightAware Approximate
Sun 10:20:00 PM 50.3622 -15.8055 84° East  Level FlightAware Approximate
Sun 10:21:00 PM 50.3772 -15.5816 84° East  Level FlightAware Approximate
Sun 10:22:00 PM 50.3917 -15.3575 84° East  Level FlightAware Approximate
Sun 10:23:00 PM 50.4058 -15.1334 84° East  Level FlightAware Approximate
Sun 10:24:00 PM 50.4194 -14.9091 84° East  Level FlightAware Approximate
Sun 10:25:00 PM 50.4327 -14.6846 85° East  Level FlightAware Approximate
Sun 10:26:00 PM 50.4455 -14.4601 85° East  Level FlightAware Approximate
Sun 10:27:00 PM 50.4578 -14.2354 85° East  Level FlightAware Approximate
Sun 10:28:00 PM 50.4698 -14.0106 85° East  Level FlightAware Approximate
Sun 10:29:00 PM 50.4813 -13.7857 85° East  Level FlightAware Approximate
Sun 10:30:00 PM 50.4923 -13.5607 85° East  Level FlightAware Approximate
Sun 10:31:00 PM 50.5030 -13.3356 86° East  Level FlightAware Approximate
Sun 10:32:00 PM 50.5132 -13.1104 86° East  Level FlightAware Approximate
Sun 10:33:00 PM 50.5229 -12.8851 86° East  Level FlightAware Approximate
Sun 10:34:00 PM 50.5323 -12.6597 86° East  Level FlightAware Approximate
Sun 10:35:00 PM 50.5421 -12.4343 86° East  Level FlightAware Approximate
Sun 10:36:00 PM 50.5517 -12.2088 86° East  Level FlightAware Approximate
Sun 10:37:00 PM 50.5608 -11.9833 86° East  Level FlightAware Approximate
Sun 10:38:00 PM 50.5695 -11.7576 86° East  Level FlightAware Approximate
Sun 10:39:00 PM 50.5778 -11.5319 87° East  Level FlightAware Approximate
Sun 10:40:00 PM 50.5856 -11.3061 87° East  Level FlightAware Approximate
Sun 10:41:00 PM 50.5930 -11.0802 87° East  Level FlightAware Approximate
Sun 10:42:00 PM 50.5999 -10.8543 87° East  Level FlightAware Approximate
Sun 10:43:00 PM 50.6065 -10.6283 87° East  Level FlightAware Approximate
Sun 10:44:00 PM 50.6125 -10.4023 87° East  Level FlightAware Approximate
Sun 10:45:00 PM 50.6182 -10.1761 88° East  Level FlightAware Approximate
Sun 10:46:00 PM 50.6234 -9.9500 88° East  Level FlightAware Approximate
Sun 10:47:00 PM 50.6281 -9.7237 88° East  Level FlightAware Approximate
Sun 10:48:00 PM 50.6325 -9.4975 88° East  Level FlightAware Approximate
Sun 10:49:00 PM 50.6363 -9.2712 88° East  Level FlightAware Approximate
Sun 10:50:00 PM 50.6398 -9.0448 89° East  Level FlightAware Approximate
Sun 10:50:32 PM 50.6450 -8.9889 89° East 1 1 45,000  Level FlightAware UK
Sun 10:51:00 PM 50.6428 -8.8185 89° East  Level FlightAware Approximate
Sun 10:51:02 PM 50.6553 -8.8793 82° East 496 571 45,000  Level FlightAware UK
Sun 10:51:32 PM 50.6655 -8.7699 82° East 494 568 45,000  Level FlightAware UK
Sun 10:52:02 PM 50.6754 -8.6606 82° East 492 566 45,000  Level FlightAware UK
Sun 10:52:32 PM 50.6854 -8.5507 82° East 492 566 45,000  Level FlightAware UK
Sun 10:53:08 PM 50.6969 -8.4196 82° East 494 568 45,000  Level FlightAware UK
Sun 10:53:44 PM 50.7081 -8.2882 82° East 494 568 45,000  Level FlightAware UK
Sun 10:54:20 PM 50.7192 -8.1577 82° East 494 568 45,000  Level FlightAware UK
Sun 10:54:50 PM 50.7288 -8.0478 82° East 494 568 45,000  Level FlightAware UK
Sun 10:55:20 PM 50.7378 -7.9390 82° East 490 564 45,000  Level FlightAware UK
Sun 10:55:51 PM 50.7467 -7.8295 83° East 490 564 45,000  Level FlightAware UK
Sun 10:56:21 PM 50.7555 -7.7204 83° East 492 566 45,000  Level FlightAware UK
Sun 10:56:57 PM 50.7657 -7.5888 83° East 494 568 45,000  Level FlightAware UK
Sun 10:57:27 PM 50.7746 -7.4785 83° East 496 571 45,000  Level FlightAware UK
Sun 10:57:57 PM 50.7833 -7.3683 83° East 496 571 45,000  Level FlightAware UK
Sun 10:58:27 PM 50.7917 -7.2583 83° East 494 568 45,000  Level FlightAware UK
Sun 10:58:57 PM 50.8002 -7.1487 83° East 496 571 45,000  Level FlightAware UK
Sun 10:59:27 PM 50.8085 -7.0395 83° East 496 571 45,000  Level FlightAware UK
Sun 10:59:57 PM 50.8170 -6.9306 83° East 494 568 45,000  Level FlightAware UK
Sun 11:00:27 PM 50.8249 -6.8219 83° East 494 568 45,000  Level FlightAware UK
Sun 11:00:57 PM 50.8328 -6.7124 83° East 492 566 45,000  Level FlightAware UK
Sun 11:01:27 PM 50.8403 -6.6029 84° East 494 568 45,000  Level FlightAware UK
Sun 11:01:57 PM 50.8481 -6.4939 83° East 494 568 45,000  Level FlightAware UK
Sun 11:02:33 PM 50.8572 -6.3639 84° East 492 566 45,000  Level FlightAware UK
Sun 11:03:03 PM 50.8647 -6.2549 84° East 494 568 45,000  Level FlightAware UK
Sun 11:03:33 PM 50.8718 -6.1455 84° East 494 568 45,000  Level FlightAware UK
Sun 11:04:03 PM 50.8796 -6.0348 84° East 494 568 45,000  Level FlightAware UK
Sun 11:04:39 PM 50.8883 -5.9040 84° East 494 568 45,000  Level FlightAware UK
Sun 11:05:09 PM 50.8954 -5.7937 84° East 496 571 45,000  Level FlightAware UK
Sun 11:05:39 PM 50.9022 -5.6842 84° East 494 568 45,000  Level FlightAware UK
Sun 11:06:09 PM 50.9091 -5.5746 84° East 494 568 45,000  Level FlightAware UK
Sun 11:06:45 PM 50.9172 -5.4444 84° East 492 566 45,000  Level FlightAware UK
Sun 11:07:21 PM 50.9250 -5.3149 85° East 492 566 45,000  Level FlightAware UK
Sun 11:07:51 PM 50.9313 -5.2062 85° East 494 568 45,000  Level FlightAware UK
Sun 11:08:21 PM 50.9376 -5.0971 85° East 494 568 45,000  Level FlightAware UK
Sun 11:08:51 PM 50.9438 -4.9877 85° East 492 566 45,000  Level FlightAware UK
Sun 11:09:21 PM 50.9502 -4.8784 85° East 494 568 45,000  Level FlightAware UK
Sun 11:09:51 PM 50.9563 -4.7681 85° East 494 568 45,000  Level FlightAware UK
Sun 11:10:22 PM 50.9622 -4.6578 85° East 494 568 45,000  Level FlightAware UK
Sun 11:10:58 PM 50.9692 -4.5261 85° East 494 568 45,000  Level FlightAware UK
Sun 11:11:28 PM 50.9749 -4.4163 85° East 492 566 45,000  Level FlightAware UK
Sun 11:11:58 PM 50.9807 -4.3068 85° East 492 566 45,000  Level FlightAware UK
Sun 11:12:28 PM 50.9861 -4.1972 85° East 492 566 45,000  Level FlightAware UK
Sun 11:12:58 PM 50.9915 -4.0877 86° East 492 566 45,000  Level FlightAware UK
Sun 11:13:28 PM 50.9971 -3.9773 85° East 494 568 45,000  Level FlightAware UK
Sun 11:13:58 PM 51.0024 -3.8659 86° East 492 566 45,000  Level FlightAware UK
Sun 11:14:34 PM 51.0086 -3.7339 86° East 494 568 45,000  Level FlightAware UK
Sun 11:15:04 PM 51.0136 -3.6225 86° East 496 571 45,000  Level FlightAware UK
Sun 11:15:34 PM 51.0185 -3.5106 86° East 494 568 45,000  Level FlightAware UK
Sun 11:16:04 PM 51.0233 -3.3999 86° East 494 568 45,000  Level FlightAware UK
Sun 11:16:34 PM 51.0281 -3.2894 86° East 496 571 45,000  Level FlightAware UK
Sun 11:17:04 PM 51.0327 -3.1789 86° East 494 568 45,000  Level FlightAware UK
Sun 11:17:34 PM 51.0371 -3.0676 86° East 496 571 45,000  Level FlightAware UK
Sun 11:18:05 PM 51.0415 -2.9565 86° East 494 568 45,000  Level FlightAware UK
Sun 11:18:41 PM 51.0466 -2.8244 86° East 492 566 45,000  Level FlightAware UK
Sun 11:19:17 PM 51.0517 -2.6922 86° East 496 571 45,000  Level FlightAware UK
Sun 11:19:52 PM 51.0563 -2.5611 87° East 494 568 45,000  Level FlightAware UK
Sun 11:20:22 PM 51.0602 -2.4498 87° East 494 568 45,000  Level FlightAware UK
Sun 11:20:52 PM 51.0641 -2.3392 87° East 496 571 45,000  Level FlightAware UK
Sun 11:21:23 PM 51.0678 -2.2282 87° East 494 568 45,000  Level FlightAware UK
Sun 11:21:53 PM 51.0714 -2.1176 87° East 492 566 45,000  Level FlightAware UK
Sun 11:22:29 PM 51.0754 -1.9861 87° East 492 566 45,000  Level FlightAware UK
Sun 11:22:59 PM 51.0789 -1.8762 87° East 496 571 45,000  Level FlightAware UK
Sun 11:23:29 PM 51.0821 -1.7650 87° East 496 571 45,000  Level FlightAware UK
Sun 11:24:05 PM 51.0859 -1.6332 87° East 494 568 45,000  Level FlightAware UK
Sun 11:24:41 PM 51.0894 -1.5016 88° East 494 568 45,000  Level FlightAware UK
Sun 11:25:11 PM 51.0923 -1.3905 88° East 496 571 45,000  Level FlightAware UK
Sun 11:25:46 PM 51.0956 -1.2593 88° East 496 571 45,000  Level FlightAware UK
Sun 11:26:17 PM 51.0983 -1.1479 88° East 496 571 45,000  Level FlightAware UK
Sun 11:26:47 PM 51.1008 -1.0369 88° East 494 568 45,000  Level FlightAware UK
Sun 11:27:17 PM 51.1032 -0.9262 88° East 494 568 45,000  Level FlightAware UK
Sun 11:27:47 PM 51.1056 -0.8156 88° East 494 568 45,000  Level FlightAware UK
Sun 11:28:17 PM 51.1079 -0.7050 88° East 492 566 45,000  Level FlightAware UK
Sun 11:28:47 PM 51.1101 -0.5951 88° East 494 568 45,000  Level FlightAware UK
Sun 11:29:18 PM 51.1120 -0.4841 88° East 494 568 45,000  Level FlightAware UK
Sun 11:29:54 PM 51.1143 -0.3512 88° East 496 571 45,000  Level FlightAware UK
Sun 11:30:29 PM 51.1165 -0.2193 88° East 494 568 45,000  Level FlightAware UK
Sun 11:31:05 PM 51.1171 -0.0874 90° East 494 568 45,000  Level FlightAware UK
Sun 11:31:35 PM 51.1176 0.0228 90° East 496 571 45,000  Level FlightAware UK
Sun 11:32:05 PM 51.1178 0.1337 90° East 494 568 45,000  Level FlightAware UK
Sun 11:32:35 PM 51.1179 0.2447 90° East 496 571 45,000  Level FlightAware UK
Sun 11:33:06 PM 51.1177 0.3559 90° East 494 568 45,000  Level FlightAware UK
Sun 11:33:36 PM 51.1178 0.4662 90° East 496 571 45,000  Level FlightAware UK
Sun 11:34:06 PM 51.1175 0.5763 90° East 496 571 45,000  Level FlightAware UK
Sun 11:34:36 PM 51.1172 0.6861 90° East 494 568 45,000  Level FlightAware UK
Sun 11:35:06 PM 51.1168 0.7967 90° East 496 571 45,000  Level FlightAware UK
Sun 11:35:42 PM 51.1161 0.9278 90° East 496 571 45,000  Level FlightAware UK
Sun 11:36:12 PM 51.1156 1.0374 90° East 494 568 45,000  Level FlightAware UK
Sun 11:36:42 PM 51.1148 1.1471 91° East 496 571 45,000  Level FlightAware UK
Sun 11:37:12 PM 51.1139 1.2581 91° East 494 568 45,000  Level FlightAware UK
Sun 11:37:42 PM 51.1130 1.3675 91° East 496 571 45,000  Level FlightAware UK
Sun 11:38:12 PM 51.1091 1.4764 93° East 496 571 45,000  Level FlightAware UK
Sun 11:38:42 PM 51.0978 1.5849 99° East 494 568 45,000  Level FlightAware UK
Sun 11:39:12 PM 51.0835 1.6919 102° East 496 571 45,000  Level FlightAware UK
Sun 11:39:42 PM 51.0690 1.7996 102° East 496 571 45,000  Level FlightAware UK
Sun 11:40:12 PM 51.0545 1.9063 102° East 494 568 45,000  Level FlightAware UK
Sun 11:40:42 PM 51.0400 2.0131 102° East 496 571 45,000  Level FlightAware UK
Sun 11:41:13 PM 51.0252 2.1220 102° East 494 568 45,000  Level FlightAware UK
Sun 11:41:43 PM 51.0104 2.2288 102° East 494 568 45,000  Level FlightAware UK
Sun 11:42:19 PM 50.9926 2.3555 103° East 496 571 45,000  Level FlightAware UK
Sun 11:42:49 PM 50.9776 2.4625 103° East 496 571 45,000  Level FlightAware UK
Sun 11:43:19 PM 50.9623 2.5701 103° East 496 571 45,000  Level FlightAware UK
Sun 11:43:49 PM 50.9471 2.6774 103° East 496 571 45,000  Level FlightAware UK
Sun 11:44:19 PM 50.9317 2.7846 103° East 498 573 45,000  Level FlightAware UK
Sun 11:44:55 PM 50.9137 2.9121 103° East 494 568 45,000  Level FlightAware UK
Sun 11:45:25 PM 50.8987 3.0179 103° East 496 571 45,000  Level FlightAware UK
Sun 11:45:55 PM 50.8839 3.1236 102° East 496 571 45,000  Level FlightAware UK
Sun 11:46:25 PM 50.8689 3.2295 103° East 496 571 45,000  Level FlightAware UK
Sun 11:46:55 PM 50.8537 3.3355 103° East 498 573 45,000  Level FlightAware UK
Sun 11:47:25 PM 50.8372 3.4417 104° East 496 571 45,000  Level FlightAware UK
Sun 11:47:55 PM 50.8213 3.5472 103° East 498 573 45,000  Level FlightAware UK
Sun 11:48:25 PM 50.8057 3.6523 103° East 494 568 45,000  Level FlightAware UK
Sun 11:48:55 PM 50.7897 3.7571 104° East 494 568 45,000  Level FlightAware UK
Sun 11:49:25 PM 50.7734 3.8616 104° East 496 571 45,000  Level FlightAware UK
Sun 11:49:55 PM 50.7570 3.9664 104° East 496 571 45,000  Level FlightAware UK
Sun 11:50:25 PM 50.7404 4.0713 104° East 496 571 45,000  Level FlightAware UK
Sun 11:50:55 PM 50.7240 4.1767 104° East 498 573 45,000  Level FlightAware UK
Sun 11:51:26 PM 50.7075 4.2829 104° East 496 571 45,000  Level FlightAware UK
Sun 11:51:56 PM 50.6906 4.3880 104° East 494 568 45,000 -700 Level FlightAware UK
Sun 11:52:26 PM 50.6731 4.4929 105° East 498 573 44,300 -1,700 Descending FlightAware UK
Sun 11:52:56 PM 50.6556 4.5977 105° East 492 566 43,300 -2,100 Descending FlightAware UK
Sun 11:53:26 PM 50.6390 4.7029 104° East 494 568 42,200 -2,200 Descending FlightAware UK
Sun 11:55:00 PM 50.6090 5.0580 106° East  Level FlightAware Approximate
Mon 12:02:00 AM 50.3573 6.5825 104° East  Level FlightAware Approximate
Mon 12:03:00 AM 50.3226 6.8008 104° East  Level FlightAware Approximate
Mon 12:04:00 AM 50.2875 7.0188 104° East  Level FlightAware Approximate
Mon 12:05:00 AM 50.2520 7.2365 104° East  Level FlightAware Approximate
Mon 12:06:00 AM 50.2141 7.4530 106° East  Level FlightAware Approximate
Mon 12:07:00 AM 50.1752 7.6688 104° East  Level FlightAware Approximate
Mon 12:08:00 AM 50.1408 7.8864 104° East  Level FlightAware Approximate
Mon 12:09:00 AM 50.0975 8.0988 104° East  Level FlightAware Approximate
Mon 12:10:00 AM 50.0666 8.3168 103° East  Level FlightAware Approximate
Mon 12:11:00 AM 50.0257 8.5305 111° Southeast  Level FlightAware Approximate
Mon 12:12:00 AM 50.0264 8.5431 111° Southeast  Level Estimated
Mon 12:13:00 AM 50.0264 8.5431 111° Southeast  Level Estimated
Mon 12:14:00 AM 50.0264 8.5431 111° Southeast  Level Estimated
Mon 12:15:00 AM 50.0264 8.5431 111° Southeast  Level Estimated
Mon 12:16:00 AM 50.0264 8.5431 111° Southeast  Level Estimated
Mon 12:17:00 AM 50.0264 8.5431 111° Southeast  Level Estimated
Mon 12:18:00 AM 50.0264 8.5431 111° Southeast  Level Estimated
Mon 12:19:00 AM 50.0264 8.5431 111° Southeast  Level Estimated
Mon 12:20:00 AM 50.0264 8.5431 111° Southeast  Level Estimated
Mon 12:21:00 AM 50.0264 8.5431 111° Southeast  Level Estimated
Mon 12:22:00 AM 50.0264 8.5431 111° Southeast  Level Estimated
Mon 12:23:00 AM 50.0264 8.5431 111° Southeast  Level Estimated
Mon 12:24:00 AM 50.0264 8.5431 111° Southeast  Level Estimated
Mon 12:25:00 AM 50.0264 8.5431 111° Southeast  Level Estimated
Mon 12:26:00 AM 50.0264 8.5431 111° Southeast  Level Estimated
Mon 12:27:00 AM 50.0264 8.5431 111° Southeast  Level Estimated
Mon 12:28:00 AM 50.0264 8.5431 111° Southeast  Level Estimated
Mon 12:29:00 AM 50.0264 8.5431 111° Southeast  Level Estimated
Mon 12:30:00 AM 50.0264 8.5431 111° Southeast  Level Estimated
Mon 12:31:00 AM 50.0264 8.5431 111° Southeast  Level Estimated
Mon 12:32:00 AM 50.0264 8.5431 111° Southeast  Level Estimated
Mon 12:33:00 AM 50.0264 8.5431 111° Southeast  Level Estimated
Mon 12:34:00 AM 50.0264 8.5431 111° Southeast  Level Estimated
Mon 12:35:00 AM 50.0264 8.5431 111° Southeast  Level Estimated
Mon 12:36:00 AM 50.0264 8.5431 111° Southeast  Level Estimated
Mon 12:37:00 AM 50.0264 8.5431 111° Southeast  Level Estimated
Mon 12:38:00 AM 50.0264 8.5431 111° Southeast  Level Estimated
Mon 12:39:00 AM 50.0264 8.5431 111° Southeast  Level Estimated

Login

Don't have an account? Register now (free) for customized features, flight alerts, and more!